createdAt,value
2018-04-09T00:02:15.572Z,13.20
2018-04-09T00:04:43.544Z,13.10
2018-04-09T00:07:12.183Z,12.90
2018-04-09T00:09:40.311Z,12.80
2018-04-09T00:12:07.819Z,12.70
2018-04-09T00:14:36.105Z,12.50
2018-04-09T00:17:04.309Z,12.50
2018-04-09T00:19:32.175Z,12.50
2018-04-09T00:22:00.142Z,12.60
2018-04-09T00:24:28.108Z,12.60
2018-04-09T00:26:57.148Z,12.60
2018-04-09T00:29:24.970Z,12.60
2018-04-09T00:31:53.039Z,12.50
2018-04-09T00:34:21.250Z,12.50
2018-04-09T00:36:48.979Z,12.50
2018-04-09T00:39:17.046Z,12.50
2018-04-09T00:41:44.784Z,12.50
2018-04-09T00:44:13.086Z,12.50
2018-04-09T00:46:41.912Z,12.50
2018-04-09T00:49:10.969Z,12.50
2018-04-09T00:51:39.142Z,12.40
2018-04-09T00:54:07.218Z,12.50
2018-04-09T00:56:36.206Z,12.30
2018-04-09T00:59:04.314Z,12.30
2018-04-09T01:01:33.778Z,12.30
2018-04-09T01:04:02.879Z,12.30
2018-04-09T01:06:30.537Z,12.30
2018-04-09T01:08:58.302Z,12.10
2018-04-09T01:11:27.210Z,11.90
2018-04-09T01:13:54.954Z,11.80
2018-04-09T01:16:23.774Z,11.80
2018-04-09T01:18:52.325Z,11.90
2018-04-09T01:21:20.498Z,11.90
2018-04-09T01:23:48.367Z,11.90
2018-04-09T01:26:16.291Z,12.00
2018-04-09T01:28:44.735Z,12.00
2018-04-09T01:31:14.251Z,12.00
2018-04-09T01:33:42.082Z,12.00
2018-04-09T01:36:11.110Z,12.00
2018-04-09T01:38:39.679Z,12.00
2018-04-09T01:41:07.688Z,12.00
2018-04-09T01:43:37.096Z,12.20
2018-04-09T01:46:06.200Z,12.10
2018-04-09T01:48:35.648Z,12.30
2018-04-09T01:51:04.822Z,12.30
2018-04-09T01:53:34.021Z,11.90
2018-04-09T01:56:02.915Z,11.60
2018-04-09T01:58:31.495Z,11.50
2018-04-09T02:01:00.270Z,11.50
2018-04-09T02:03:28.558Z,11.50
2018-04-09T02:05:56.731Z,11.30
2018-04-09T02:08:25.146Z,10.90
2018-04-09T02:10:52.874Z,10.90
2018-04-09T02:13:20.654Z,11.00
2018-04-09T02:15:48.947Z,11.20
2018-04-09T02:18:18.169Z,11.20
2018-04-09T02:20:46.926Z,11.10
2018-04-09T02:23:15.405Z,11.10
2018-04-09T02:25:43.271Z,11.10
2018-04-09T02:28:11.418Z,11.00
2018-04-09T02:30:39.490Z,11.00
2018-04-09T02:33:07.524Z,10.90
2018-04-09T02:35:35.338Z,10.70
2018-04-09T02:38:04.630Z,10.60
2018-04-09T02:40:33.186Z,10.50
2018-04-09T02:43:01.793Z,10.50
2018-04-09T02:45:29.588Z,10.40
2018-04-09T02:47:57.524Z,10.40
2018-04-09T02:50:25.184Z,10.50
2018-04-09T02:52:53.050Z,10.50
2018-04-09T02:55:21.156Z,10.40
2018-04-09T02:57:51.332Z,10.30
2018-04-09T03:00:20.164Z,10.30
2018-04-09T03:02:49.450Z,10.30
2018-04-09T03:05:17.911Z,10.30
2018-04-09T03:07:46.392Z,10.20
2018-04-09T03:10:14.724Z,10.20
2018-04-09T03:12:42.638Z,10.40
2018-04-09T03:15:10.760Z,10.40
2018-04-09T03:17:40.285Z,10.30
2018-04-09T03:20:08.093Z,10.30
2018-04-09T03:22:37.474Z,10.30
2018-04-09T03:25:06.227Z,10.20
2018-04-09T03:27:34.743Z,10.10
2018-04-09T03:30:03.227Z,10.20
2018-04-09T03:32:31.413Z,10.20
2018-04-09T03:35:00.025Z,10.10
2018-04-09T03:37:27.951Z,10.20
2018-04-09T03:39:56.927Z,10.10
2018-04-09T03:42:25.746Z,10.00
2018-04-09T03:44:53.550Z,9.90
2018-04-09T03:47:21.568Z,9.80
2018-04-09T03:49:49.510Z,9.90
2018-04-09T03:52:17.319Z,9.90
2018-04-09T03:54:45.190Z,9.70
2018-04-09T03:57:13.544Z,9.70
2018-04-09T03:59:43.000Z,9.80
2018-04-09T04:02:10.915Z,9.80
2018-04-09T04:04:38.929Z,9.80
2018-04-09T04:07:07.467Z,9.70
2018-04-09T04:09:35.120Z,9.70
2018-04-09T04:12:03.143Z,9.80
2018-04-09T04:14:33.384Z,10.20
2018-04-09T04:17:13.591Z,10.10
2018-04-09T04:19:54.469Z,10.10
2018-04-09T04:22:24.226Z,9.90
2018-04-09T04:24:51.995Z,9.90
2018-04-09T04:27:20.526Z,9.90
2018-04-09T04:29:48.419Z,9.90
2018-04-09T04:32:16.029Z,9.90
2018-04-09T04:34:43.659Z,9.80
2018-04-09T04:37:13.565Z,9.80
2018-04-09T04:39:41.308Z,9.80
2018-04-09T04:42:09.771Z,9.80
2018-04-09T04:44:37.610Z,9.80
2018-04-09T04:47:05.679Z,9.80
2018-04-09T04:49:33.653Z,9.70
2018-04-09T04:52:01.528Z,9.60
2018-04-09T04:54:29.293Z,9.70
2018-04-09T04:56:57.044Z,9.70
2018-04-09T04:59:25.503Z,9.60
2018-04-09T05:01:53.288Z,9.60
2018-04-09T05:04:22.171Z,9.60
2018-04-09T05:06:51.740Z,9.60
2018-04-09T05:09:19.874Z,9.60
2018-04-09T05:11:47.626Z,9.60
2018-04-09T05:14:15.609Z,9.50
2018-04-09T05:16:43.559Z,9.40
2018-04-09T05:19:13.122Z,9.30
2018-04-09T05:21:41.441Z,9.40
2018-04-09T05:24:10.241Z,9.40
2018-04-09T05:26:38.094Z,9.40
2018-04-09T05:29:07.240Z,9.40
2018-04-09T05:31:34.952Z,9.40
2018-04-09T05:34:03.301Z,9.50
2018-04-09T05:36:31.555Z,9.60
2018-04-09T05:39:00.290Z,9.70
2018-04-09T05:41:28.365Z,9.70
2018-04-09T05:43:56.330Z,9.70
2018-04-09T05:46:25.339Z,9.90
2018-04-09T05:48:54.597Z,9.90
2018-04-09T05:51:24.671Z,9.90
2018-04-09T05:53:53.647Z,10.00
2018-04-09T05:56:22.456Z,10.10
2018-04-09T05:58:51.195Z,10.10
2018-04-09T06:01:19.153Z,10.20
2018-04-09T06:03:47.035Z,10.20
2018-04-09T06:06:15.637Z,10.20
2018-04-09T06:08:44.065Z,10.30
2018-04-09T06:11:12.647Z,10.40
2018-04-09T06:13:40.271Z,10.40
2018-04-09T06:16:08.929Z,10.50
2018-04-09T06:18:38.074Z,10.50
2018-04-09T06:21:05.894Z,10.10
2018-04-09T06:23:33.869Z,9.80
2018-04-09T06:26:02.038Z,9.80
2018-04-09T06:28:30.026Z,10.10
2018-04-09T06:30:58.384Z,10.40
2018-04-09T06:33:27.199Z,10.90
2018-04-09T06:35:55.786Z,10.90
2018-04-09T06:38:25.133Z,11.20
2018-04-09T06:40:55.357Z,11.60
2018-04-09T06:43:24.681Z,11.80
2018-04-09T06:45:53.261Z,12.20
2018-04-09T06:48:21.238Z,12.20
2018-04-09T06:50:50.425Z,12.60
2018-04-09T06:53:20.206Z,12.70
2018-04-09T06:55:48.001Z,12.60
2018-04-09T06:58:16.495Z,12.40
2018-04-09T07:00:44.246Z,12.20
2018-04-09T07:03:12.317Z,12.00
2018-04-09T07:05:40.591Z,12.00
2018-04-09T07:08:09.704Z,12.20
2018-04-09T07:10:37.546Z,12.40
2018-04-09T07:13:05.569Z,12.70
2018-04-09T07:15:34.105Z,13.30
2018-04-09T07:18:03.606Z,13.20
2018-04-09T07:20:31.475Z,13.50
2018-04-09T07:22:59.343Z,13.70
2018-04-09T07:25:27.172Z,13.90
2018-04-09T07:27:56.003Z,14.20
2018-04-09T07:30:24.000Z,13.90
2018-04-09T07:32:51.932Z,14.30
2018-04-09T07:35:19.798Z,14.30
2018-04-09T07:37:47.592Z,13.50
2018-04-09T07:40:16.874Z,13.20
2018-04-09T07:42:46.077Z,13.10
2018-04-09T07:45:14.457Z,14.20
2018-04-09T07:47:42.641Z,14.20
2018-04-09T07:50:10.989Z,15.50
2018-04-09T07:52:38.856Z,16.30
2018-04-09T07:55:07.953Z,16.80
2018-04-09T07:57:35.943Z,17.00
2018-04-09T08:00:04.811Z,17.00
2018-04-09T08:02:33.608Z,16.90
2018-04-09T08:05:02.210Z,16.90
2018-04-09T08:07:30.353Z,17.00
2018-04-09T08:09:59.517Z,17.10
2018-04-09T08:12:28.225Z,17.30
2018-04-09T08:14:57.453Z,17.80
2018-04-09T08:17:25.376Z,17.80
2018-04-09T08:19:53.446Z,18.00
2018-04-09T08:22:21.856Z,17.90
2018-04-09T08:24:49.825Z,18.00
2018-04-09T08:27:18.607Z,18.50
2018-04-09T08:29:47.725Z,18.50
2018-04-09T08:32:16.284Z,18.70
2018-04-09T08:34:44.888Z,18.70
2018-04-09T08:37:12.667Z,18.50
2018-04-09T08:39:40.706Z,18.70
2018-04-09T08:42:08.671Z,18.90
2018-04-09T08:44:36.844Z,19.20
2018-04-09T08:47:05.434Z,19.40
2018-04-09T08:49:34.000Z,19.50
2018-04-09T08:52:02.605Z,19.70
2018-04-09T08:54:31.664Z,20.00
2018-04-09T08:57:00.171Z,20.90
2018-04-09T08:59:27.932Z,21.10
2018-04-09T09:01:55.912Z,21.30
2018-04-09T09:04:23.871Z,21.60
2018-04-09T09:06:51.749Z,21.50
2018-04-09T09:09:19.821Z,21.70
2018-04-09T09:11:47.621Z,21.60
2018-04-09T09:14:15.975Z,21.90
2018-04-09T09:16:43.917Z,21.90
2018-04-09T09:19:11.505Z,21.80
2018-04-09T09:21:39.248Z,21.90
2018-04-09T09:24:06.903Z,21.80
2018-04-09T09:26:34.577Z,21.70
2018-04-09T09:29:02.502Z,22.00
2018-04-09T09:31:31.181Z,22.30
2018-04-09T09:33:59.082Z,22.50
2018-04-09T09:36:26.847Z,22.90
2018-04-09T09:38:55.021Z,23.20
2018-04-09T09:41:25.437Z,23.20
2018-04-09T09:43:54.521Z,22.90
2018-04-09T09:46:24.084Z,23.70
2018-04-09T09:48:54.270Z,22.30
2018-04-09T09:51:22.370Z,22.70
2018-04-09T09:53:52.047Z,23.10
2018-04-09T09:56:21.756Z,23.10
2018-04-09T09:58:49.724Z,23.10
2018-04-09T10:01:21.363Z,23.50
2018-04-09T10:03:51.498Z,23.50
2018-04-09T10:06:21.442Z,23.80
2018-04-09T10:08:50.715Z,24.20
2018-04-09T10:16:20.250Z,25.10
